Time;durP1;ratioP1;P1;durP2;ratioP2;P2;SDS_P1;SDS_P2;PMS_P1;PMS_P2;Temp;Humidity;BMP_temperature;BMP_pressure;BME280_temperature;BME280_humidity;BME280_pressure;Samples;Min_cycle;Max_cycle;Signal;HPM_P1;HPM_P2
2023/01/02 00:01:40;;;;;;;3.08;2.22;;;14.00;61.00;;;16.87;41.34;97737.97;5044114;28;20091;-51
2023/01/02 00:04:08;;;;;;;4.57;2.50;;;14.00;61.00;;;16.90;41.29;97734.88;5043877;28;20059;-50
2023/01/02 00:06:38;;;;;;;3.30;1.88;;;14.10;60.80;;;16.94;41.32;97737.97;5043793;28;20045;-53
2023/01/02 00:09:07;;;;;;;3.15;1.80;;;14.10;60.70;;;16.96;41.27;97732.41;5044179;28;20045;-53
2023/01/02 00:11:35;;;;;;;4.78;2.03;;;14.10;60.70;;;16.98;41.46;97723.09;5043634;28;20056;-54
2023/01/02 00:14:03;;;;;;;3.53;1.90;;;14.10;60.70;;;17.00;41.17;97721.06;5043473;28;20045;-52
2023/01/02 00:16:31;;;;;;;5.90;1.85;;;14.20;60.70;;;17.01;41.16;97725.41;5044058;28;20052;-53
2023/01/02 00:18:59;;;;;;;3.92;2.05;;;14.20;60.30;;;17.03;41.01;97720.66;5043858;28;20053;-51
2023/01/02 00:21:26;;;;;;;7.22;2.20;;;14.20;60.30;;;17.04;41.18;97718.78;5035527;28;20247;-50
2023/01/02 00:23:54;;;;;;;5.13;1.83;;;14.20;60.20;;;17.03;41.07;97722.53;5044144;28;20244;-50
2023/01/02 00:26:22;;;;;;;3.40;2.13;;;14.20;59.80;;;17.04;40.80;97719.63;5043807;28;20037;-52
2023/01/02 00:28:50;;;;;;;4.18;2.28;;;14.20;59.10;;;17.03;40.74;97723.34;5043812;28;20048;-49
2023/01/02 00:31:17;;;;;;;5.05;2.65;;;14.20;59.30;;;17.06;40.62;97725.66;5043401;28;20247;-49
2023/01/02 00:33:45;;;;;;;4.40;2.03;;;14.30;59.40;;;17.12;40.64;97722.16;5042911;28;20252;-53
2023/01/02 00:36:13;;;;;;;5.45;2.47;;;14.40;59.40;;;17.18;41.07;97728.59;5043658;28;20051;-52
2023/01/02 00:38:43;;;;;;;4.32;2.25;;;14.40;59.40;;;17.17;40.90;97731.47;5043810;28;20284;-51
2023/01/02 00:41:10;;;;;;;5.88;2.08;;;14.40;59.70;;;17.13;40.87;97739.94;5043942;28;20046;-49
2023/01/02 00:43:38;;;;;;;3.63;2.15;;;14.30;59.70;;;17.13;40.85;97745.31;5042479;28;20045;-50
2023/01/02 00:46:06;;;;;;;3.53;1.80;;;14.30;60.30;;;17.10;41.12;97744.91;5043411;28;20045;-50
2023/01/02 00:48:39;;;;;;;3.50;1.80;;;14.30;59.90;;;17.12;41.05;97749.03;5043569;28;20043;-51
2023/01/02 00:51:07;;;;;;;5.60;2.47;;;14.20;60.20;;;17.16;41.04;97743.25;5043091;28;20049;-49
2023/01/02 00:53:36;;;;;;;3.83;2.03;;;14.20;60.00;;;17.15;41.01;97737.03;5042520;28;20049;-51
2023/01/02 00:56:04;;;;;;;5.53;2.20;;;14.20;59.90;;;17.17;40.83;97732.28;5043313;28;20075;-51
2023/01/02 00:58:33;;;;;;;7.00;2.03;;;14.30;59.90;;;17.17;40.87;97734.16;5043319;28;20041;-52
2023/01/02 01:01:01;;;;;;;4.20;2.20;;;14.20;59.80;;;17.19;41.01;97726.72;5043165;28;20071;-51
2023/01/02 01:03:29;;;;;;;7.13;1.80;;;14.20;60.30;;;17.22;40.72;97729.00;5034971;28;20043;-50
2023/01/02 01:05:57;;;;;;;3.47;2.10;;;14.20;60.10;;;17.18;40.96;97730.44;5043082;28;20033;-50
2023/01/02 01:08:25;;;;;;;3.70;2.00;;;14.20;60.30;;;17.20;41.13;97728.38;5043494;28;20037;-50
2023/01/02 01:10:52;;;;;;;3.10;1.85;;;14.30;60.50;;;17.18;40.79;97731.28;5042850;28;20260;-50
2023/01/02 01:13:20;;;;;;;5.25;2.25;;;14.30;60.70;;;17.19;40.96;97732.91;5042544;28;20049;-52
2023/01/02 01:15:48;;;;;;;3.40;2.08;;;14.20;60.40;;;17.20;41.14;97731.09;5042781;28;20053;-52
2023/01/02 01:18:16;;;;;;;4.05;2.13;;;14.30;60.50;;;17.20;40.79;97729.22;5042864;28;20228;-52
2023/01/02 01:20:44;;;;;;;3.80;2.17;;;14.30;60.10;;;17.21;40.75;97733.53;5042741;28;20244;-50
2023/01/02 01:23:11;;;;;;;3.95;1.90;;;14.30;60.10;;;17.23;40.74;97730.66;5041837;28;20056;-51
2023/01/02 01:25:39;;;;;;;4.05;2.40;;;14.30;60.20;;;17.22;40.87;97729.00;5042722;28;20038;-53
2023/01/02 01:28:07;;;;;;;5.10;2.22;;;14.30;60.00;;;17.25;40.82;97725.91;5042579;28;20049;-52
2023/01/02 01:30:34;;;;;;;5.97;1.60;;;14.30;59.80;;;17.22;40.77;97712.88;5042941;28;20044;-50
2023/01/02 01:33:02;;;;;;;4.28;2.58;;;14.30;59.90;;;17.23;40.91;97709.13;5042752;28;20049;-54
2023/01/02 01:35:32;;;;;;;4.35;2.20;;;14.30;60.00;;;17.20;40.96;97706.88;5034184;28;20043;-50
2023/01/02 01:38:00;;;;;;;4.78;2.47;;;14.30;60.20;;;17.20;40.96;97720.31;5042486;28;20044;-51
2023/01/02 01:40:36;;;;;;;6.18;2.22;;;14.30;60.20;;;17.19;41.04;97721.34;5041313;28;20184;-53
2023/01/02 01:43:11;;;;;;;3.08;2.17;;;14.30;60.10;;;17.19;40.99;97724.84;5040206;28;20049;-50
2023/01/02 01:45:42;;;;;;;2.45;2.03;;;14.30;60.20;;;17.18;40.81;97735.84;5017871;28;20037;-51
2023/01/02 01:48:15;;;;;;;4.13;1.73;;;14.30;60.00;;;17.19;40.78;97732.09;5042568;28;20049;-53
2023/01/02 01:50:44;;;;;;;3.47;2.37;;;14.20;59.60;;;17.19;40.53;97730.22;5042338;28;20041;-51
2023/01/02 01:53:17;;;;;;;4.72;2.28;;;14.20;59.70;;;17.18;40.79;97728.59;5041846;28;20519;-51
2023/01/02 01:55:54;;;;;;;3.67;2.13;;;14.30;59.80;;;17.17;40.73;97718.84;5040618;28;20371;-53
2023/01/02 01:58:32;;;;;;;4.80;2.08;;;14.20;59.80;;;17.17;40.80;97720.72;5040997;28;20041;-51
2023/01/02 02:01:01;;;;;;;3.03;2.58;;;14.20;59.60;;;17.18;40.73;97723.19;5041102;28;20243;-49
2023/01/02 02:03:32;;;;;;;3.00;1.92;;;14.20;59.90;;;17.16;40.98;97714.50;5040651;28;20037;-53
2023/01/02 02:06:01;;;;;;;2.15;1.90;;;14.30;60.30;;;17.16;40.74;97719.03;5041887;28;20355;-49
2023/01/02 02:08:59;;;;;;;4.82;2.38;;;14.20;59.90;;;17.15;40.84;97707.47;5042447;28;20045;-50
2023/01/02 02:11:29;;;;;;;7.38;1.98;;;14.20;59.60;;;17.15;40.79;97706.63;5040887;28;20042;-49
2023/01/02 02:14:00;;;;;;;3.53;1.90;;;14.20;59.80;;;17.14;40.67;97711.19;5040421;28;20046;-50
2023/01/02 02:17:00;;;;;;;5.82;2.25;;;14.20;59.50;;;17.10;40.86;97697.31;5040439;28;20049;-51
2023/01/02 02:19:31;;;;;;;7.28;2.38;;;14.20;59.30;;;17.13;40.68;97693.38;5041390;28;20049;-53
2023/01/02 02:22:24;;;;;;;3.95;2.00;;;14.20;59.80;;;17.08;40.80;97688.63;5041587;28;20053;-52
2023/01/02 02:25:32;;;;;;;4.80;2.20;;;14.20;59.70;;;17.07;40.84;97689.63;5035163;28;20041;-51
2023/01/02 02:28:02;;;;;;;2.85;2.13;;;14.20;59.60;;;17.07;41.00;97678.88;5037853;28;20072;-51
2023/01/02 02:30:42;;;;;;;4.05;2.03;;;14.10;60.10;;;17.08;40.99;97677.03;5041459;28;20060;-51
2023/01/02 02:33:35;;;;;;;3.83;2.30;;;14.10;60.10;;;17.08;40.76;97679.72;5040510;28;20047;-52
2023/01/02 02:36:33;;;;;;;2.60;2.03;;;14.10;59.80;;;17.09;40.64;97671.44;5041890;28;20046;-53
2023/01/02 02:39:31;;;;;;;4.40;1.92;;;14.10;59.60;;;17.09;40.78;97674.13;5037496;28;20059;-54
2023/01/02 02:42:27;;;;;;;4.50;2.20;;;14.10;60.10;;;17.08;41.10;97671.66;5037042;28;20052;-50
2023/01/02 02:45:18;;;;;;;3.25;2.10;;;14.10;60.00;;;17.06;40.82;97666.47;5035348;28;20052;-51
2023/01/02 02:48:33;;;;;;;5.40;3.72;;;14.10;60.10;;;17.03;40.90;97666.88;5035526;28;20045;-50
2023/01/02 02:51:09;;;;;;;5.55;1.98;;;14.10;59.70;;;17.06;40.93;97660.25;5036633;28;20048;-52
2023/01/02 02:53:44;;;;;;;3.80;2.13;;;14.10;60.30;;;17.02;40.90;97656.31;5032171;28;20037;-54
2023/01/02 02:56:15;;;;;;;3.60;2.00;;;14.10;60.10;;;16.98;40.91;97647.81;5044470;28;20274;-49
2023/01/02 02:58:45;;;;;;;3.55;2.80;;;14.10;60.00;;;17.01;40.77;97650.09;5044657;28;20037;-53
2023/01/02 03:01:16;;;;;;;4.35;2.38;;;14.10;60.10;;;17.01;40.85;97643.91;5043827;28;20137;-51
2023/01/02 03:03:45;;;;;;;3.60;1.77;;;14.10;60.00;;;17.00;40.71;97644.91;5044965;28;20042;-52
2023/01/02 03:06:22;;;;;;;3.72;1.60;;;14.10;59.90;;;17.02;40.75;97646.41;5045264;28;20248;-53
2023/01/02 03:09:18;;;;;;;3.20;1.80;;;14.10;59.50;;;17.01;40.60;97644.72;5045092;28;20045;-54
2023/01/02 03:12:31;;;;;;;3.72;1.95;;;14.10;59.20;;;17.00;40.91;97648.47;5038692;28;20051;-54
2023/01/02 03:15:32;;;;;;;3.08;1.98;;;14.10;59.20;;;16.99;40.69;97656.72;5040236;28;20055;-51
2023/01/02 03:18:32;;;;;;;6.45;1.88;;;14.10;59.30;;;16.97;40.63;97656.09;5040531;28;20041;-53
2023/01/02 03:21:08;;;;;;;2.47;1.40;;;14.10;59.00;;;16.91;40.65;97653.19;5039376;28;20050;-52
2023/01/02 03:23:44;;;;;;;4.13;2.03;;;14.00;59.10;;;16.90;40.67;97651.53;5036363;28;20047;-55
2023/01/02 03:26:24;;;;;;;3.72;1.95;;;14.10;58.70;;;16.92;40.63;97659.38;5043900;28;20049;-53
2023/01/02 03:29:00;;;;;;;5.72;2.47;;;14.10;59.10;;;16.93;40.56;97659.19;5044056;28;20067;-54
2023/01/02 03:31:31;;;;;;;4.95;1.95;;;14.10;58.50;;;16.96;40.44;97663.31;5043841;28;20049;-50
2023/01/02 03:34:12;;;;;;;3.83;1.80;;;14.10;58.40;;;16.93;40.42;97659.19;5043505;28;20059;-54
2023/01/02 03:36:43;;;;;;;4.25;1.90;;;14.10;58.00;;;16.93;40.43;97650.28;5036352;28;20041;-53
2023/01/02 03:39:16;;;;;;;3.13;2.00;;;14.10;58.30;;;16.92;40.21;97657.53;5044632;28;20045;-53
2023/01/02 03:41:53;;;;;;;2.90;1.33;;;14.10;58.30;;;16.98;40.17;97658.56;5044635;28;20049;-50
2023/01/02 03:44:29;;;;;;;3.42;2.35;;;14.10;57.80;;;16.99;40.16;97656.72;5043155;28;20060;-52
2023/01/02 03:47:29;;;;;;;3.28;1.70;;;14.10;58.10;;;16.96;40.04;97662.50;5043561;28;20050;-52
2023/01/02 03:50:02;;;;;;;3.15;1.83;;;14.10;57.70;;;16.94;40.03;97660.00;5037687;28;20055;-53
2023/01/02 03:52:30;;;;;;;2.78;1.27;;;14.10;58.10;;;16.97;40.12;97664.16;5043389;28;20329;-54
2023/01/02 03:54:59;;;;;;;4.60;1.70;;;14.10;58.00;;;16.95;40.11;97663.53;5044238;28;20107;-54
2023/01/02 03:57:41;;;;;;;5.03;1.65;;;14.10;58.20;;;16.95;40.35;97664.38;5043310;28;20049;-52
2023/01/02 04:00:14;;;;;;;2.67;1.63;;;14.10;57.90;;;16.98;39.81;97663.94;5043311;28;20041;-55
2023/01/02 04:03:02;;;;;;;4.10;2.38;;;14.10;58.30;;;16.96;40.11;97662.50;5035282;28;20044;-51
2023/01/02 04:05:45;;;;;;;2.85;1.70;;;14.10;57.90;;;16.96;40.01;97663.31;5043097;28;20051;-53
2023/01/02 04:08:21;;;;;;;4.60;2.05;;;14.00;57.70;;;16.91;40.06;97666.63;5043162;28;20048;-53
2023/01/02 04:10:54;;;;;;;5.90;2.13;;;14.10;58.00;;;16.93;39.95;97664.56;5043207;28;20049;-55
2023/01/02 04:13:39;;;;;;;4.05;1.67;;;14.00;58.10;;;16.97;40.07;97664.16;5042812;28;20451;-52
2023/01/02 04:16:12;;;;;;;2.60;1.45;;;14.10;57.80;;;16.98;39.76;97669.31;5043139;28;20052;-54
2023/01/02 04:18:50;;;;;;;3.53;1.90;;;14.10;57.90;;;16.99;39.92;97660.25;5034996;28;20340;-54
2023/01/02 04:21:25;;;;;;;3.53;1.63;;;14.10;57.60;;;16.95;39.67;97664.38;5043926;28;20283;-53
2023/01/02 04:24:18;;;;;;;3.75;1.85;;;14.00;57.70;;;16.89;39.80;97659.78;5042544;28;20343;-52
2023/01/02 04:26:55;;;;;;;5.97;2.20;;;14.00;57.40;;;16.94;39.76;97654.63;5035650;28;20048;-55
2023/01/02 04:29:23;;;;;;;5.20;1.80;;;14.00;57.60;;;16.90;39.56;97658.75;5043556;28;20336;-52
2023/01/02 04:32:11;;;;;;;2.85;1.90;;;14.00;57.70;;;16.87;39.73;97649.22;5044184;28;20048;-55
2023/01/02 04:34:41;;;;;;;5.63;1.70;;;14.00;57.30;;;16.89;39.75;97643.66;5042495;28;20041;-53
2023/01/02 04:37:09;;;;;;;2.70;1.55;;;14.00;57.50;;;16.90;39.70;97639.94;5042971;28;20045;-52
2023/01/02 04:39:38;;;;;;;5.15;2.17;;;14.00;57.50;;;16.88;39.60;97642.00;5041864;28;20270;-52
2023/01/02 04:42:05;;;;;;;4.63;1.92;;;14.00;57.50;;;16.92;39.69;97640.56;5042578;28;20045;-54
2023/01/02 04:44:33;;;;;;;3.80;1.75;;;14.00;57.60;;;16.95;39.53;97636.66;5041356;28;20041;-50
2023/01/02 04:47:01;;;;;;;3.38;2.00;;;14.00;57.60;;;16.93;39.49;97634.97;5042950;28;20052;-53
2023/01/02 04:49:28;;;;;;;12.05;4.93;;;14.00;57.50;;;16.93;39.43;97634.16;5043509;28;20045;-54
2023/01/02 04:51:56;;;;;;;8.30;3.90;;;14.00;57.50;;;16.94;39.46;97641.19;5043371;28;20363;-51
2023/01/02 04:54:24;;;;;;;6.35;2.30;;;14.00;57.50;;;16.94;39.38;97643.88;5043251;28;20041;-52
2023/01/02 04:56:52;;;;;;;10.73;4.47;;;14.00;58.10;;;16.93;39.62;97640.34;5043920;28;20048;-51
2023/01/02 04:59:19;;;;;;;6.55;3.13;;;14.00;57.70;;;16.93;39.54;97645.72;5043324;28;20242;-51
2023/01/02 05:01:47;;;;;;;3.83;2.22;;;14.00;57.50;;;16.91;39.43;97642.41;5043342;28;20055;-52
2023/01/02 05:04:15;;;;;;;2.60;2.13;;;14.00;57.20;;;16.89;39.30;97646.34;5042841;28;20038;-52
2023/01/02 05:06:43;;;;;;;4.10;2.00;;;14.00;57.00;;;16.86;39.24;97641.38;5043163;28;20041;-54
2023/01/02 05:09:10;;;;;;;4.85;2.40;;;14.00;56.80;;;16.87;39.39;97643.84;5043912;28;20355;-49
2023/01/02 05:11:38;;;;;;;5.45;2.42;;;13.90;56.90;;;16.87;39.11;97651.94;5043150;28;20049;-51
2023/01/02 05:14:06;;;;;;;3.75;2.00;;;14.00;56.70;;;16.89;39.23;97641.78;5042817;28;20052;-52
2023/01/02 05:16:34;;;;;;;6.28;2.15;;;14.00;56.70;;;16.91;39.14;97637.03;5042656;28;20056;-52
2023/01/02 05:19:02;;;;;;;5.45;2.47;;;14.00;56.70;;;16.91;39.48;97646.97;5043132;28;20041;-54
2023/01/02 05:24:16;;;;;;;3.80;1.90;;;14.00;56.90;;;16.91;39.45;97652.34;5042620;28;20053;-49
2023/01/02 05:26:44;;;;;;;6.75;2.95;;;14.00;57.20;;;16.90;39.25;97650.69;5034006;28;20045;-53
2023/01/02 05:29:12;;;;;;;4.55;1.98;;;14.00;57.20;;;16.90;39.38;97646.16;5042877;28;20072;-53
2023/01/02 05:31:39;;;;;;;3.72;2.80;;;13.90;57.20;;;16.91;39.33;97663.94;5042655;28;20224;-52
2023/01/02 05:34:13;;;;;;;3.95;1.98;;;13.90;57.10;;;16.88;39.28;97658.94;5042370;28;20042;-52
2023/01/02 05:36:42;;;;;;;5.50;2.05;;;13.90;57.20;;;16.85;38.96;97661.22;5042671;28;20247;-54
2023/01/02 05:39:11;;;;;;;3.33;1.85;;;13.90;56.70;;;16.81;39.15;97663.44;5041625;28;20045;-53
2023/01/02 05:41:40;;;;;;;2.80;1.67;;;13.90;56.80;;;16.76;38.99;97660.53;5042709;28;20071;-52
2023/01/02 05:44:09;;;;;;;5.50;2.25;;;13.80;56.40;;;16.74;39.11;97657.22;5042518;28;20348;-53
2023/01/02 05:46:38;;;;;;;3.72;1.80;;;13.80;56.40;;;16.71;38.94;97655.75;5042433;28;20051;-53
2023/01/02 05:49:08;;;;;;;4.00;1.77;;;13.80;56.30;;;16.72;38.92;97653.91;5041437;28;20041;-52
2023/01/02 05:51:36;;;;;;;2.60;1.98;;;13.80;56.40;;;16.73;38.97;97669.81;5041487;28;20045;-50
2023/01/02 05:54:06;;;;;;;3.97;2.17;;;13.80;56.40;;;16.74;38.95;97663.41;5041918;28;20252;-53
2023/01/02 05:56:34;;;;;;;3.05;2.13;;;13.80;56.10;;;16.76;39.09;97668.59;5042343;28;20045;-54
2023/01/02 05:59:06;;;;;;;5.72;2.00;;;13.80;56.20;;;16.61;39.34;97678.66;5042217;28;20049;-51
2023/01/02 06:01:34;;;;;;;4.22;2.33;;;13.70;56.90;;;16.57;39.77;97672.00;5042214;28;20055;-53
2023/01/02 06:04:02;;;;;;;4.15;2.13;;;13.70;57.40;;;16.58;39.66;97673.69;5042372;28;20046;-54
2023/01/02 06:06:39;;;;;;;4.10;1.70;;;13.60;57.50;;;16.57;39.41;97659.41;5042123;28;20052;-55
2023/01/02 06:09:10;;;;;;;3.85;1.95;;;13.60;57.50;;;16.61;39.54;97671.41;5042091;28;20339;-53
2023/01/02 06:11:38;;;;;;;3.35;2.00;;;13.70;57.50;;;16.65;39.31;97672.69;5042034;28;20052;-51
2023/01/02 06:14:07;;;;;;;3.88;1.95;;;13.70;57.20;;;16.66;39.43;97671.66;5042362;28;20053;-53
2023/01/02 06:16:39;;;;;;;4.72;2.00;;;13.70;57.00;;;16.54;39.28;97679.44;5042065;28;20334;-52
2023/01/02 06:19:07;;;;;;;5.68;2.08;;;13.60;56.80;;;16.51;39.38;97679.84;5042245;28;20053;-54
2023/01/02 06:21:34;;;;;;;3.30;2.10;;;13.60;57.20;;;16.47;39.33;97683.13;5041941;28;20053;-53
2023/01/02 06:24:02;;;;;;;6.25;2.78;;;13.50;57.20;;;16.46;39.37;97682.31;5041681;28;20049;-53
2023/01/02 06:26:30;;;;;;;5.00;2.40;;;13.50;57.30;;;16.43;39.61;97693.44;5042330;28;20045;-52
2023/01/02 06:29:03;;;;;;;3.05;1.83;;;13.50;57.50;;;16.44;39.74;97688.88;5042438;28;20056;-49
2023/01/02 06:31:32;;;;;;;3.30;1.92;;;13.50;57.70;;;16.42;39.87;97697.16;5047457;28;20056;-52
2023/01/02 06:34:02;;;;;;;5.90;2.90;;;13.40;57.70;;;16.42;39.68;97691.78;5048063;28;20051;-52
2023/01/02 06:36:33;;;;;;;6.35;2.63;;;13.50;57.70;;;16.43;39.58;97696.13;5048783;28;20052;-52
2023/01/02 06:39:01;;;;;;;3.55;1.73;;;13.50;57.50;;;16.42;39.61;97699.00;5048490;28;20056;-55
2023/01/02 06:41:29;;;;;;;3.35;2.38;;;13.50;57.70;;;16.42;39.72;97699.84;5048190;28;20252;-52
2023/01/02 06:43:57;;;;;;;4.68;2.08;;;13.50;58.60;;;16.42;39.95;97696.31;5047760;28;20047;-53
2023/01/02 06:46:25;;;;;;;3.75;1.80;;;13.40;58.10;;;16.41;40.05;97706.22;5048234;28;20348;-50
2023/01/02 06:48:52;;;;;;;4.82;2.10;;;13.40;58.30;;;16.37;39.96;97707.66;5048342;28;20051;-52
2023/01/02 06:51:22;;;;;;;5.03;2.15;;;13.30;58.60;;;16.31;40.12;97716.50;5048123;28;20263;-54
2023/01/02 06:53:50;;;;;;;3.25;1.70;;;13.30;58.80;;;16.29;40.13;97713.19;5046661;28;20045;-54
2023/01/02 06:56:19;;;;;;;4.53;2.20;;;13.20;58.80;;;16.22;40.25;97721.19;5048620;28;20047;-54
2023/01/02 06:58:47;;;;;;;4.68;2.20;;;13.20;59.10;;;16.17;40.36;97718.28;5048171;28;20048;-53
2023/01/02 07:01:21;;;;;;;2.42;1.50;;;13.10;59.30;;;16.17;40.57;97722.78;5047277;28;20049;-53
2023/01/02 07:03:49;;;;;;;6.18;2.80;;;13.10;59.60;;;16.15;40.29;97731.06;5038653;28;20041;-51
2023/01/02 07:06:20;;;;;;;3.17;2.05;;;13.10;59.30;;;16.13;40.21;97728.56;5048028;28;20049;-51
2023/01/02 07:08:48;;;;;;;5.82;2.20;;;13.10;59.50;;;16.09;40.52;97727.31;5040386;28;20041;-55
2023/01/02 07:11:23;;;;;;;5.30;2.75;;;13.10;59.50;;;16.04;40.44;97735.09;5048030;28;20049;-52
2023/01/02 07:13:53;;;;;;;3.00;2.30;;;13.10;59.30;;;16.02;40.23;97747.06;5039452;28;20255;-54
2023/01/02 07:16:23;;;;;;;8.48;2.42;;;13.00;59.20;;;16.00;40.25;97747.25;5047712;28;20045;-55
2023/01/02 07:18:52;;;;;;;3.90;2.03;;;13.00;58.70;;;16.00;40.52;97741.88;5038895;28;20052;-52
2023/01/02 07:21:21;;;;;;;5.13;2.00;;;13.00;59.00;;;16.02;40.14;97741.69;5046306;28;20053;-54
2023/01/02 07:23:49;;;;;;;3.35;1.73;;;13.00;58.40;;;16.00;40.25;97747.25;5039413;28;20056;-50
2023/01/02 07:26:17;;;;;;;3.97;2.08;;;13.10;58.40;;;15.99;40.11;97747.44;5048130;28;20056;-53
2023/01/02 07:28:46;;;;;;;6.00;2.25;;;13.00;58.50;;;16.00;39.97;97741.06;5047629;28;20041;-54
2023/01/02 07:31:17;;;;;;;5.65;2.38;;;13.00;58.30;;;16.00;39.87;97752.63;5047714;28;20071;-51
2023/01/02 07:33:45;;;;;;;2.65;1.60;;;13.10;58.10;;;16.01;39.81;97750.75;5047200;28;20352;-54
2023/01/02 07:36:17;;;;;;;5.97;2.30;;;13.10;58.00;;;16.01;40.02;97753.44;5047670;28;20045;-54
2023/01/02 07:38:50;;;;;;;3.80;1.98;;;13.10;58.10;;;16.03;40.02;97760.31;5047633;28;20071;-53
2023/01/02 07:41:21;;;;;;;3.35;1.92;;;13.10;58.20;;;16.05;40.05;97760.09;5045990;28;20309;-51
2023/01/02 07:43:52;;;;;;;5.65;2.05;;;13.10;58.30;;;16.07;40.02;97766.09;5043795;28;20339;-53
2023/01/02 07:46:23;;;;;;;5.18;2.17;;;13.10;58.30;;;16.09;39.87;97769.41;5039271;28;20072;-52
2023/01/02 07:48:51;;;;;;;3.55;2.70;;;13.10;58.00;;;16.10;39.92;97763.84;5036519;28;20247;-53
2023/01/02 07:51:18;;;;;;;4.88;2.60;;;13.10;58.10;;;16.10;39.79;97765.72;5044488;28;20045;-53
2023/01/02 07:53:55;;;;;;;6.68;3.10;;;13.10;58.20;;;16.09;39.97;97770.25;5036755;28;20237;-53
2023/01/02 07:56:24;;;;;;;5.93;2.00;;;13.10;58.30;;;16.06;39.92;97770.63;5044992;28;20049;-51
2023/01/02 07:58:52;;;;;;;5.22;2.17;;;13.00;58.30;;;16.06;39.81;97770.63;5036812;28;20060;-53
2023/01/02 08:01:20;;;;;;;3.33;1.90;;;13.00;58.10;;;16.05;39.58;97768.13;5044532;28;20260;-54
2023/01/02 08:03:49;;;;;;;4.72;2.00;;;13.00;57.80;;;16.06;39.84;97775.19;5043781;28;20047;-49
2023/01/02 08:06:17;;;;;;;5.22;2.40;;;13.10;58.00;;;16.07;39.91;97772.31;5044252;28;20051;-54
2023/01/02 08:08:46;;;;;;;6.95;3.30;;;13.10;58.20;;;16.10;39.76;97766.53;5044301;28;20045;-52
2023/01/02 08:11:17;;;;;;;5.72;2.10;;;13.10;58.10;;;16.12;39.93;97777.09;5044249;28;20045;-52
2023/01/02 08:13:45;;;;;;;5.10;2.08;;;13.10;58.10;;;16.13;39.84;97774.22;5043825;28;20096;-54
2023/01/02 08:16:20;;;;;;;3.97;2.42;;;13.10;58.10;;;16.16;39.83;97775.69;5043983;28;20041;-50
2023/01/02 08:18:54;;;;;;;4.05;1.83;;;13.10;58.00;;;16.17;39.42;97780.03;5043975;28;20037;-52
2023/01/02 08:21:23;;;;;;;2.58;1.73;;;13.20;57.40;;;16.20;39.35;97786.88;5044144;28;20229;-54
2023/01/02 08:23:52;;;;;;;3.47;1.80;;;13.20;57.90;;;16.23;39.53;97792.69;5043492;28;20049;-50
2023/01/02 08:26:20;;;;;;;4.35;2.05;;;13.30;57.40;;;16.25;39.28;97790.66;5043086;28;20046;-48
2023/01/02 08:28:48;;;;;;;4.80;2.08;;;13.30;56.60;;;16.28;39.19;97802.84;5043860;28;20048;-53
2023/01/02 08:31:20;;;;;;;4.50;2.35;;;13.30;56.30;;;16.29;39.07;97797.28;5043924;28;20045;-51
2023/01/02 08:33:49;;;;;;;2.97;1.80;;;13.30;56.30;;;16.34;39.21;97799.38;5043394;28;20033;-52
2023/01/02 08:36:18;;;;;;;3.10;1.90;;;13.30;56.70;;;16.37;39.20;97804.38;5043740;28;20044;-52
2023/01/02 08:38:46;;;;;;;5.47;1.85;;;13.40;56.60;;;16.35;39.23;97806.44;5043743;28;20052;-49
2023/01/02 08:41:14;;;;;;;2.88;1.83;;;13.40;56.70;;;16.36;39.16;97807.25;5043407;28;20255;-50
2023/01/02 08:43:42;;;;;;;3.80;2.20;;;13.40;56.60;;;16.38;39.00;97813.25;5043169;28;20055;-51
2023/01/02 08:46:10;;;;;;;6.15;3.28;;;13.40;56.50;;;16.36;39.17;97813.44;5043184;28;20340;-52
2023/01/02 08:48:38;;;;;;;5.70;2.10;;;13.40;56.50;;;16.36;39.07;97807.25;5043442;28;20041;-52
2023/01/02 08:51:05;;;;;;;3.97;2.25;;;13.40;56.60;;;16.34;39.26;97816.34;5043217;28;20055;-51
2023/01/02 08:53:33;;;;;;;5.30;2.20;;;13.40;57.50;;;16.32;39.37;97814.88;5042337;28;20054;-51
2023/01/02 08:56:22;;;;;;;3.53;2.60;;;13.30;57.00;;;16.32;39.32;97828.28;5043349;28;20041;-54
2023/01/02 08:58:55;;;;;;;3.75;2.30;;;13.40;56.40;;;16.32;39.37;97822.91;5043361;28;20071;-54
2023/01/02 09:01:26;;;;;;;4.93;2.00;;;13.40;56.80;;;16.31;39.16;97816.72;5042381;28;20045;-53
2023/01/02 09:03:55;;;;;;;3.53;1.88;;;13.40;56.90;;;16.30;39.10;97823.13;5043129;28;20045;-52
2023/01/02 09:06:25;;;;;;;3.25;1.98;;;13.30;56.50;;;16.25;39.16;97828.25;5043088;28;20094;-53
2023/01/02 09:08:56;;;;;;;3.10;1.85;;;13.30;56.80;;;16.27;39.23;97822.69;5043001;28;20041;-52
2023/01/02 09:11:31;;;;;;;4.28;2.40;;;13.30;56.80;;;16.30;39.20;97827.66;5041473;28;20248;-53
2023/01/02 09:14:01;;;;;;;3.35;1.90;;;13.30;56.60;;;16.34;39.38;97832.47;5035012;28;20239;-51
2023/01/02 09:16:29;;;;;;;6.88;2.67;;;13.40;56.70;;;16.39;39.56;97834.56;5031504;28;20357;-51
2023/01/02 09:19:00;;;;;;;4.35;2.05;;;13.40;56.70;;;16.45;38.91;97830.28;5036134;28;20067;-53
2023/01/02 09:21:29;;;;;;;4.00;2.78;;;13.50;56.10;;;16.51;38.69;97834.88;5037439;28;20402;-52
2023/01/02 09:23:57;;;;;;;3.17;2.13;;;13.50;55.70;;;16.53;38.62;97827.44;5037869;28;20072;-53
2023/01/02 09:26:25;;;;;;;4.35;1.98;;;13.60;55.60;;;16.55;38.33;97838.81;5038636;28;20040;-55
2023/01/02 09:28:53;;;;;;;5.53;2.40;;;13.60;54.60;;;16.56;37.73;97839.69;5037593;28;20244;-53
2023/01/02 09:31:21;;;;;;;5.75;1.80;;;13.60;53.50;;;16.59;37.67;97850.03;5036676;28;20045;-53
2023/01/02 09:33:49;;;;;;;5.35;2.20;;;13.70;53.50;;;16.61;37.37;97845.28;5036368;28;20065;-50
2023/01/02 09:36:19;;;;;;;3.28;1.73;;;13.80;53.00;;;16.62;37.19;97850.47;5033660;28;20060;-53
2023/01/02 09:38:53;;;;;;;2.72;1.70;;;13.80;52.30;;;16.65;37.12;97863.53;5034481;28;20045;-53
2023/01/02 09:41:32;;;;;;;5.45;2.80;;;13.80;52.00;;;16.69;37.24;97872.88;5037066;28;20056;-55
2023/01/02 09:44:25;;;;;;;4.72;2.22;;;13.90;52.80;;;16.68;37.51;97879.25;5037776;28;20252;-53
2023/01/02 09:47:12;;;;;;;5.38;2.58;;;13.80;53.20;;;16.66;37.82;97885.84;5037714;28;20252;-49
2023/01/02 09:49:48;;;;;;;3.30;1.83;;;13.80;53.70;;;16.63;37.97;97889.75;5037439;28;20049;-52
2023/01/02 09:52:25;;;;;;;3.15;1.88;;;13.80;54.00;;;16.62;38.01;97890.78;5037678;28;20058;-50
2023/01/02 09:54:54;;;;;;;3.95;1.85;;;13.70;54.20;;;16.63;38.38;97891.59;5036151;28;20053;-55
2023/01/02 09:57:28;;;;;;;4.60;2.35;;;13.70;55.00;;;16.66;37.98;97891.22;5036022;28;20057;-51
2023/01/02 10:00:23;;;;;;;6.82;2.22;;;13.70;54.10;;;16.66;38.11;97896.59;5036492;28;20354;-51
2023/01/02 10:03:18;;;;;;;3.88;1.83;;;13.70;54.30;;;16.66;37.93;97905.50;5035855;28;20373;-53
2023/01/02 10:06:11;;;;;;;4.70;2.20;;;13.70;54.00;;;16.63;37.92;97905.03;5033628;28;20045;-50
2023/01/02 10:09:11;;;;;;;4.83;2.47;;;13.70;53.40;;;16.66;37.93;97902.81;5031291;28;20065;-49
2023/01/02 10:12:00;;;;;;;9.40;2.28;;;13.70;54.20;;;16.69;37.79;97917.72;5034615;28;20259;-49
2023/01/02 10:14:55;;;;;;;6.30;3.75;;;13.70;54.10;;;16.68;37.82;97916.88;5033690;28;20049;-50
2023/01/02 10:17:27;;;;;;;9.10;3.65;;;13.80;53.90;;;16.68;37.83;97913.38;5031434;28;20057;-52
2023/01/02 10:19:57;;;;;;;4.68;2.50;;;13.80;54.20;;;16.73;37.70;97919.00;5035954;28;20060;-55
2023/01/02 10:22:41;;;;;;;2.85;2.25;;;13.80;53.40;;;16.76;37.73;97921.28;5036576;28;20074;-49
2023/01/02 10:25:25;;;;;;;;;;;13.90;53.60;;;16.91;38.01;97914.00;5037651;28;20041;-54
2023/01/02 10:28:13;;;;;;;3.95;2.42;;;13.90;52.70;;;16.92;37.50;97913.00;5033956;28;19936;-51
2023/01/02 10:31:03;;;;;;;2.47;1.60;;;13.90;53.10;;;16.91;37.68;97921.25;5033234;28;20053;-51
2023/01/02 10:33:52;;;;;;;3.13;2.08;;;14.00;52.60;;;16.90;37.52;97911.50;5035819;28;20373;-52
2023/01/02 10:36:25;;;;;;;4.28;2.58;;;13.90;53.40;;;16.91;37.56;97907.81;5034489;28;20052;-53
2023/01/02 10:38:59;;;;;;;6.95;2.92;;;13.90;53.40;;;16.94;37.67;97912.78;5035215;28;20053;-48
2023/01/02 10:41:29;;;;;;;8.40;3.65;;;14.00;53.30;;;17.01;37.57;97912.84;5034363;28;20054;-52
2023/01/02 10:44:04;;;;;;;6.03;2.88;;;14.10;53.40;;;17.02;37.61;97915.34;5037593;28;20056;-52
2023/01/02 10:46:36;;;;;;;6.13;2.78;;;14.10;53.60;;;17.09;37.37;97912.69;5032860;28;20041;-53
2023/01/02 10:49:06;;;;;;;4.82;2.63;;;14.20;53.20;;;17.17;37.19;97917.09;5038370;28;20063;-48